TimeMDT,TemperatureF,Dew PointF,Humidity,Sea Level PressureIn,VisibilityMPH,Wind Direction,Wind SpeedMPH,Gust SpeedMPH,PrecipitationIn,Events,Conditions,WindDirDegrees,DateUTC
12:51 AM,86.0,53.1,32,29.79,10.0,SSE,8.1,-,N/A,,Scattered Clouds,150,2013-07-11 06:51:00
1:51 AM,84.9,52.0,32,29.79,10.0,SSE,10.4,-,N/A,,Scattered Clouds,160,2013-07-11 07:51:00
2:51 AM,82.0,53.1,37,29.78,10.0,South,5.8,-,N/A,,Scattered Clouds,170,2013-07-11 08:51:00
3:51 AM,82.0,55.0,39,29.80,10.0,South,8.1,-,N/A,,Scattered Clouds,190,2013-07-11 09:51:00
4:51 AM,82.0,57.9,44,29.79,10.0,SSW,5.8,-,N/A,,Mostly Cloudy,210,2013-07-11 10:51:00
5:51 AM,79.0,60.1,52,29.81,10.0,SE,5.8,-,N/A,,Mostly Cloudy,140,2013-07-11 11:51:00
6:51 AM,79.0,55.9,45,29.83,10.0,South,4.6,-,N/A,,Mostly Cloudy,170,2013-07-11 12:51:00
7:51 AM,81.0,60.1,49,29.83,10.0,Calm,Calm,-,N/A,,Mostly Cloudy,0,2013-07-11 13:51:00
8:51 AM,84.0,57.0,40,29.84,10.0,North,12.7,-,N/A,,Mostly Cloudy,350,2013-07-11 14:51:00
9:51 AM,87.1,55.9,35,29.84,10.0,NE,11.5,-,N/A,,Scattered Clouds,40,2013-07-11 15:51:00
10:51 AM,89.1,55.0,31,29.83,10.0,NNE,11.5,-,N/A,,Mostly Cloudy,20,2013-07-11 16:51:00
11:51 AM,93.0,55.0,28,29.81,10.0,NNE,9.2,-,N/A,,Mostly Cloudy,20,2013-07-11 17:51:00
12:51 PM,95.0,54.0,25,29.79,10.0,NW,5.8,-,N/A,,Mostly Cloudy,310,2013-07-11 18:51:00
1:51 PM,97.0,53.1,23,29.76,10.0,SE,12.7,17.3,N/A,,Mostly Cloudy,140,2013-07-11 19:51:00
2:51 PM,96.1,51.1,22,29.75,10.0,South,8.1,-,N/A,,Mostly Cloudy,170,2013-07-11 20:51:00
3:51 PM,95.0,53.1,24,29.72,10.0,South,12.7,21.9,N/A,,Overcast,180,2013-07-11 21:51:00
4:12 PM,93.2,53.6,26,30.00,10.0,East,20.7,26.5,N/A,,Overcast,100,2013-07-11 22:12:00
4:51 PM,88.0,55.9,34,29.74,10.0,East,13.8,-,N/A,,Overcast,90,2013-07-11 22:51:00
5:51 PM,91.0,55.9,30,29.73,10.0,East,10.4,-,N/A,,Overcast,80,2013-07-11 23:51:00
6:51 PM,91.9,54.0,27,29.72,10.0,East,8.1,-,N/A,,Mostly Cloudy,100,2013-07-12 00:51:00
7:51 PM,91.0,54.0,28,29.72,10.0,East,8.1,-,N/A,,Mostly Cloudy,100,2013-07-12 01:51:00
8:51 PM,90.0,53.1,28,29.72,10.0,East,10.4,-,N/A,,Mostly Cloudy,100,2013-07-12 02:51:00
9:51 PM,88.0,53.1,30,29.73,10.0,East,5.8,-,N/A,,Mostly Cloudy,100,2013-07-12 03:51:00
10:51 PM,87.8,55.4,33,29.75,10.0,ESE,9.2,-,N/A,,Scattered Clouds,110,2013-07-12 04:51:00
11:51 PM,84.9,54.0,34,29.75,10.0,East,5.8,-,N/A,,Scattered Clouds,100,2013-07-12 05:51:00